createdAt,value
2019-01-13T00:02:24.839Z,6.20
2019-01-13T00:07:19.846Z,6.20
2019-01-13T00:12:13.555Z,6.20
2019-01-13T00:17:08.407Z,6.20
2019-01-13T00:22:02.999Z,6.20
2019-01-13T00:26:57.309Z,6.20
2019-01-13T00:31:52.428Z,6.20
2019-01-13T00:36:47.138Z,6.20
2019-01-13T00:41:40.871Z,6.10
2019-01-13T00:46:34.918Z,6.10
2019-01-13T00:51:28.671Z,6.20
2019-01-13T00:56:22.452Z,6.20
2019-01-13T01:01:16.212Z,6.20
2019-01-13T01:06:10.043Z,6.20
2019-01-13T01:11:06.593Z,6.20
2019-01-13T01:16:00.402Z,6.20
2019-01-13T01:20:54.809Z,6.20
2019-01-13T01:25:48.663Z,6.20
2019-01-13T01:30:43.697Z,6.30
2019-01-13T01:35:37.995Z,6.40
2019-01-13T01:40:34.780Z,6.30
2019-01-13T01:45:29.516Z,6.30
2019-01-13T01:50:23.411Z,6.30
2019-01-13T01:55:18.762Z,6.30
2019-01-13T02:00:15.610Z,6.30
2019-01-13T02:05:13.685Z,6.30
2019-01-13T02:10:10.507Z,6.30
2019-01-13T02:15:10.146Z,6.40
2019-01-13T02:20:08.312Z,6.40
2019-01-13T02:25:07.498Z,6.40
2019-01-13T02:30:06.032Z,6.40
2019-01-13T02:34:57.763Z,6.30
2019-01-13T02:39:52.087Z,6.40
2019-01-13T02:44:45.803Z,6.40
2019-01-13T02:49:39.714Z,6.50
2019-01-13T02:54:33.539Z,6.50
2019-01-13T02:59:27.717Z,6.50
2019-01-13T03:04:21.515Z,6.50
2019-01-13T03:09:16.512Z,6.50
2019-01-13T03:14:11.954Z,6.50
2019-01-13T03:19:07.915Z,6.50
2019-01-13T03:24:03.057Z,6.40
2019-01-13T03:28:56.822Z,6.40
2019-01-13T03:33:51.502Z,6.40
2019-01-13T03:38:46.290Z,6.50
2019-01-13T03:43:40.723Z,6.50
2019-01-13T03:48:34.592Z,6.50
2019-01-13T03:53:29.270Z,6.60
2019-01-13T03:58:25.054Z,6.50
2019-01-13T04:03:20.310Z,6.50
2019-01-13T04:08:15.336Z,6.50
2019-01-13T04:13:10.430Z,6.50
2019-01-13T04:18:07.417Z,6.60
2019-01-13T04:23:04.640Z,6.60
2019-01-13T04:27:59.828Z,6.50
2019-01-13T04:32:55.695Z,6.50
2019-01-13T04:37:49.408Z,6.50
2019-01-13T04:42:43.291Z,6.60
2019-01-13T04:47:36.999Z,6.60
2019-01-13T04:52:30.759Z,6.70
2019-01-13T04:57:24.432Z,6.80
2019-01-13T05:02:24.666Z,6.60
2019-01-13T05:07:20.909Z,6.60
2019-01-13T05:12:14.684Z,6.50
2019-01-13T05:17:09.648Z,6.60
2019-01-13T05:22:05.266Z,6.60
2019-01-13T05:27:03.875Z,6.60
2019-01-13T05:31:57.112Z,6.50
2019-01-13T05:36:51.672Z,6.50
2019-01-13T05:41:47.780Z,6.50
2019-01-13T05:46:41.417Z,6.60
2019-01-13T05:51:37.083Z,6.60
2019-01-13T05:56:32.371Z,6.70
2019-01-13T06:01:27.008Z,6.70
2019-01-13T06:06:20.755Z,6.60
2019-01-13T06:11:14.435Z,6.60
2019-01-13T06:16:09.315Z,6.60
2019-01-13T06:21:08.105Z,6.60
2019-01-13T06:26:05.898Z,6.60
2019-01-13T06:31:00.462Z,6.60
2019-01-13T06:35:54.382Z,6.60
2019-01-13T06:40:50.048Z,6.60
2019-01-13T06:45:43.848Z,6.60
2019-01-13T06:50:37.700Z,6.50
2019-01-13T06:55:32.653Z,6.50
2019-01-13T07:00:27.414Z,6.50
2019-01-13T07:05:21.828Z,6.50
2019-01-13T07:10:15.692Z,6.50
2019-01-13T07:15:17.877Z,6.50
2019-01-13T07:20:14.696Z,6.60
2019-01-13T07:25:08.942Z,6.60
2019-01-13T07:30:16.877Z,6.70
2019-01-13T07:35:11.874Z,6.70
2019-01-13T07:40:09.070Z,6.70
2019-01-13T07:45:03.956Z,6.80
2019-01-13T07:49:58.355Z,7.00
2019-01-13T07:54:52.082Z,7.00
2019-01-13T07:59:47.030Z,7.00
2019-01-13T08:04:45.657Z,7.10
2019-01-13T08:09:39.345Z,7.10
2019-01-13T08:14:33.562Z,7.10
2019-01-13T08:19:27.392Z,7.10
2019-01-13T08:24:21.115Z,7.30
2019-01-13T08:29:15.515Z,7.30
2019-01-13T08:34:09.376Z,7.30
2019-01-13T08:39:05.544Z,7.50
2019-01-13T08:43:59.196Z,7.50
2019-01-13T08:48:53.515Z,7.40
2019-01-13T08:53:47.265Z,7.50
2019-01-13T08:58:41.518Z,7.60
2019-01-13T09:03:35.275Z,7.70
2019-01-13T09:08:29.325Z,7.70
2019-01-13T09:13:22.992Z,7.80
2019-01-13T09:18:19.278Z,7.90
2019-01-13T09:23:13.230Z,7.90
2019-01-13T09:28:07.408Z,7.90
2019-01-13T09:33:05.525Z,7.80
2019-01-13T09:37:58.734Z,7.80
2019-01-13T09:42:52.979Z,7.80
2019-01-13T09:47:48.198Z,7.80
2019-01-13T09:52:41.920Z,7.90
2019-01-13T09:57:35.828Z,8.10
2019-01-13T10:02:30.071Z,8.30
2019-01-13T10:07:24.677Z,8.40
2019-01-13T10:12:19.185Z,8.50
2019-01-13T10:17:14.037Z,8.50
2019-01-13T10:22:09.154Z,8.40
2019-01-13T10:27:04.764Z,8.30
2019-01-13T10:31:58.611Z,8.50
2019-01-13T10:36:52.401Z,8.60
2019-01-13T10:41:46.164Z,8.70
2019-01-13T10:46:40.710Z,8.70
2019-01-13T10:51:36.622Z,8.60
2019-01-13T10:56:30.948Z,8.40
2019-01-13T11:01:24.675Z,8.40
2019-01-13T11:06:18.341Z,8.30
2019-01-13T11:11:12.197Z,8.20
2019-01-13T11:16:12.008Z,8.10
2019-01-13T11:21:08.284Z,8.30
2019-01-13T11:26:05.539Z,8.40
2019-01-13T11:30:59.285Z,8.50
2019-01-13T11:35:53.829Z,8.50
2019-01-13T11:40:48.988Z,8.50
2019-01-13T11:45:42.663Z,8.60
2019-01-13T11:50:37.471Z,8.60
2019-01-13T11:55:32.214Z,8.60
2019-01-13T12:00:40.058Z,8.60
2019-01-13T12:05:34.233Z,8.60
2019-01-13T12:10:27.957Z,8.60
2019-01-13T12:15:23.563Z,8.50
2019-01-13T12:20:19.470Z,8.40
2019-01-13T12:25:15.876Z,8.30
2019-01-13T12:30:18.420Z,8.10
2019-01-13T12:35:14.893Z,8.00
2019-01-13T12:40:15.383Z,7.90
2019-01-13T12:45:15.834Z,7.90
2019-01-13T12:50:18.566Z,7.90
2019-01-13T12:55:12.513Z,8.00
2019-01-13T13:00:10.721Z,8.10
2019-01-13T13:05:07.350Z,8.00
2019-01-13T13:10:04.777Z,8.10
2019-01-13T13:14:58.561Z,8.10
2019-01-13T13:19:53.023Z,8.10
2019-01-13T13:24:47.476Z,8.10
2019-01-13T13:29:41.490Z,8.00
2019-01-13T13:34:35.181Z,8.00
2019-01-13T13:39:30.043Z,8.00
2019-01-13T13:44:24.213Z,8.00
2019-01-13T13:49:18.919Z,8.10
2019-01-13T13:54:15.930Z,8.20
2019-01-13T13:59:09.963Z,8.20
2019-01-13T14:04:29.711Z,8.20
2019-01-13T14:09:23.516Z,8.20
2019-01-13T14:14:20.082Z,8.20
2019-01-13T14:19:13.812Z,8.20
2019-01-13T14:24:07.699Z,8.20
2019-01-13T14:29:05.569Z,8.20
2019-01-13T14:34:00.637Z,8.10
2019-01-13T14:38:54.440Z,8.10
2019-01-13T14:43:48.257Z,8.10
2019-01-13T14:48:44.006Z,8.20
2019-01-13T14:53:40.261Z,8.20
2019-01-13T14:58:33.901Z,8.20
2019-01-13T15:03:27.541Z,8.20
2019-01-13T15:08:22.039Z,8.20
2019-01-13T15:13:15.941Z,8.20
2019-01-13T15:18:12.075Z,8.10
2019-01-13T15:23:05.789Z,8.10
2019-01-13T15:28:01.036Z,8.00
2019-01-13T15:32:56.556Z,7.90
2019-01-13T15:37:50.347Z,7.90
2019-01-13T15:42:43.975Z,7.90
2019-01-13T15:47:37.669Z,7.80
2019-01-13T15:52:31.533Z,7.80
2019-01-13T15:57:27.993Z,7.80
2019-01-13T16:02:21.848Z,7.80
2019-01-13T16:07:17.921Z,7.70
2019-01-13T16:12:13.641Z,7.80
2019-01-13T16:17:08.604Z,7.80
2019-01-13T16:22:02.418Z,7.80
2019-01-13T16:26:56.207Z,7.80
2019-01-13T16:31:51.148Z,7.90
2019-01-13T16:37:04.514Z,8.00
2019-01-13T16:42:00.157Z,8.00
2019-01-13T16:46:54.433Z,8.10
2019-01-13T16:51:48.270Z,8.20
2019-01-13T16:56:45.280Z,8.20
2019-01-13T17:01:42.081Z,8.20
2019-01-13T17:06:36.231Z,8.40
2019-01-13T17:11:31.745Z,8.40
2019-01-13T17:16:27.112Z,8.40
2019-01-13T17:21:21.381Z,8.40
2019-01-13T17:26:17.279Z,8.50
2019-01-13T17:31:11.063Z,8.50
2019-01-13T17:36:06.745Z,8.40
2019-01-13T17:41:00.513Z,8.40
2019-01-13T17:45:54.212Z,8.40
2019-01-13T17:50:48.408Z,8.30
2019-01-13T17:55:42.130Z,8.30
2019-01-13T18:00:44.828Z,8.40
2019-01-13T18:05:39.294Z,8.40
2019-01-13T18:10:54.176Z,8.40
2019-01-13T18:15:49.059Z,8.40
2019-01-13T18:20:42.830Z,8.40
2019-01-13T18:25:36.471Z,8.40
2019-01-13T18:30:30.762Z,8.50
2019-01-13T18:35:28.709Z,8.60
2019-01-13T18:40:25.608Z,8.60
2019-01-13T18:45:22.472Z,8.70
2019-01-13T18:50:21.117Z,8.70
2019-01-13T18:55:15.629Z,8.70
2019-01-13T19:00:19.467Z,8.80
2019-01-13T19:05:15.299Z,8.90
2019-01-13T19:10:21.583Z,8.90
2019-01-13T19:15:12.405Z,9.00
2019-01-13T19:20:13.411Z,8.90
2019-01-13T19:25:10.656Z,8.70
2019-01-13T19:30:09.389Z,8.80
2019-01-13T19:35:04.975Z,8.90
2019-01-13T19:40:01.355Z,9.00
2019-01-13T19:44:55.430Z,9.10
2019-01-13T19:49:51.781Z,9.10
2019-01-13T19:54:46.883Z,9.10
2019-01-13T19:59:42.142Z,9.30
2019-01-13T20:04:36.621Z,9.20
2019-01-13T20:09:32.456Z,9.20
2019-01-13T20:14:26.256Z,9.00
2019-01-13T20:19:20.654Z,8.90
2019-01-13T20:24:16.725Z,8.70
2019-01-13T20:29:11.993Z,8.60
2019-01-13T20:34:17.069Z,8.50
2019-01-13T20:39:13.313Z,8.40
2019-01-13T20:44:07.024Z,8.20
2019-01-13T20:49:00.764Z,8.10
2019-01-13T20:53:54.432Z,8.00
2019-01-13T20:58:48.099Z,7.90
2019-01-13T21:03:43.479Z,7.80
2019-01-13T21:08:37.998Z,7.70
2019-01-13T21:13:31.672Z,7.70
2019-01-13T21:18:25.619Z,7.80
2019-01-13T21:23:19.293Z,7.80
2019-01-13T21:28:13.799Z,7.80
2019-01-13T21:33:07.504Z,7.90
2019-01-13T21:38:03.573Z,7.90
2019-01-13T21:42:58.357Z,7.90
2019-01-13T21:47:53.498Z,7.80
2019-01-13T21:52:47.999Z,7.70
2019-01-13T21:57:46.258Z,7.70
2019-01-13T22:02:42.790Z,7.70
2019-01-13T22:07:42.071Z,7.70
2019-01-13T22:12:35.818Z,7.70
2019-01-13T22:17:31.508Z,7.60
2019-01-13T22:22:25.174Z,7.70
2019-01-13T22:27:21.110Z,7.70
2019-01-13T22:32:14.777Z,7.70
2019-01-13T22:37:08.714Z,7.80
2019-01-13T22:42:06.075Z,7.80
2019-01-13T22:47:00.255Z,7.90
2019-01-13T22:51:53.852Z,7.90
2019-01-13T22:56:49.486Z,8.00
2019-01-13T23:01:43.600Z,8.00
2019-01-13T23:06:38.541Z,8.00
2019-01-13T23:11:32.287Z,8.00
2019-01-13T23:16:26.013Z,8.00
2019-01-13T23:21:19.840Z,8.00
2019-01-13T23:26:14.087Z,7.90
2019-01-13T23:31:08.859Z,7.90
2019-01-13T23:36:03.113Z,8.00
2019-01-13T23:40:59.434Z,7.90
2019-01-13T23:45:54.215Z,7.70
2019-01-13T23:50:47.992Z,7.50
2019-01-13T23:55:41.767Z,7.60
